Time;durP1;ratioP1;P1;durP2;ratioP2;P2;SDS_P1;SDS_P2;PMS_P1;PMS_P2;Temp;Humidity;BMP_temperature;BMP_pressure;BME280_temperature;BME280_humidity;BME280_pressure;Samples;Min_cycle;Max_cycle;Signal;HPM_P1;HPM_P2
2022/01/05 00:01:22;;;;;;;3.95;1.67;;;4.40;99.90;;;;;;5033569;28;20052;-34
2022/01/05 00:03:48;;;;;;;7.05;1.05;;;4.40;99.90;;;;;;5024740;28;20024;-35
2022/01/05 00:06:13;;;;;;;5.03;0.65;;;4.40;99.90;;;;;;5034115;28;20461;-34
2022/01/05 00:08:39;;;;;;;2.08;0.70;;;4.40;99.90;;;;;;5034060;28;20029;-36
2022/01/05 00:11:06;;;;;;;4.57;0.80;;;4.40;99.90;;;;;;5026324;28;20100;-36
2022/01/05 00:13:32;;;;;;;1.60;0.85;;;4.40;99.90;;;;;;5030861;28;20508;-38
2022/01/05 00:15:58;;;;;;;2.63;0.65;;;4.40;99.90;;;;;;5030361;28;20033;-35
2022/01/05 00:18:23;;;;;;;10.57;1.00;;;4.40;99.90;;;;;;5027783;28;20072;-32
2022/01/05 00:20:49;;;;;;;6.63;1.83;;;4.40;99.90;;;;;;5027171;28;20037;-36
2022/01/05 00:23:15;;;;;;;3.30;1.15;;;4.40;99.90;;;;;;5013527;28;20052;-32
2022/01/05 00:25:40;;;;;;;5.53;1.10;;;4.40;99.90;;;;;;5016446;28;20033;-37
2022/01/05 00:28:06;;;;;;;3.60;1.13;;;4.40;99.90;;;;;;5022285;28;20400;-35
2022/01/05 00:30:32;;;;;;;6.00;1.38;;;4.40;99.90;;;;;;5016937;28;20024;-38
2022/01/05 00:32:57;;;;;;;6.68;1.30;;;4.40;99.90;;;;;;5022884;28;20033;-42
2022/01/05 00:35:23;;;;;;;12.30;2.13;;;4.40;99.90;;;;;;5030696;28;20507;-33
2022/01/05 00:37:48;;;;;;;2.42;1.02;;;4.40;99.90;;;;;;5026223;28;20029;-32
2022/01/05 00:40:14;;;;;;;5.20;1.00;;;4.50;99.90;;;;;;5015821;28;20018;-39
2022/01/05 00:42:40;;;;;;;11.85;1.55;;;4.60;99.90;;;;;;5021037;28;20053;-38
2022/01/05 00:45:06;;;;;;;7.90;1.50;;;4.60;99.90;;;;;;5020424;28;20545;-57
2022/01/05 00:47:32;;;;;;;3.80;1.15;;;4.70;99.90;;;;;;5013124;28;20481;-42
2022/01/05 00:49:57;;;;;;;4.25;1.17;;;4.70;99.90;;;;;;5020248;28;20018;-36
2022/01/05 00:52:23;;;;;;;6.13;1.15;;;4.70;99.90;;;;;;5023790;28;20053;-38
2022/01/05 00:54:49;;;;;;;5.72;0.77;;;4.70;99.90;;;;;;5028786;28;20112;-39
2022/01/05 00:57:15;;;;;;;11.65;1.40;;;4.60;99.90;;;;;;5012988;28;20096;-31
2022/01/05 00:59:41;;;;;;;14.38;3.50;;;4.50;99.90;;;;;;5016179;28;20507;-39
2022/01/05 01:02:06;;;;;;;3.17;1.15;;;4.40;99.90;;;;;;5024391;28;20128;-37
2022/01/05 01:04:32;;;;;;;7.78;1.48;;;4.40;99.90;;;;;;5018656;28;20021;-35
2022/01/05 01:06:58;;;;;;;8.75;2.17;;;4.30;99.90;;;;;;5030926;28;20030;-37
2022/01/05 01:09:23;;;;;;;1.70;1.10;;;4.30;99.90;;;;;;5027935;28;20029;-34
2022/01/05 01:11:49;;;;;;;1.33;0.90;;;4.30;99.90;;;;;;5028011;28;20512;-36
2022/01/05 01:14:15;;;;;;;12.40;1.63;;;4.30;99.90;;;;;;5036177;28;20108;-39
2022/01/05 01:16:41;;;;;;;4.18;0.75;;;4.30;99.90;;;;;;5035806;28;20029;-36
2022/01/05 01:19:06;;;;;;;17.92;1.50;;;4.20;99.90;;;;;;5035574;28;20500;-37
2022/01/05 01:21:32;;;;;;;6.25;0.73;;;4.20;99.90;;;;;;5032345;28;20495;-35
2022/01/05 01:23:58;;;;;;;5.18;1.10;;;4.20;99.90;;;;;;5016095;28;20493;-36
2022/01/05 01:26:26;;;;;;;3.65;1.25;;;4.20;99.90;;;;;;5019760;28;20026;-34
2022/01/05 01:28:52;;;;;;;4.18;0.70;;;4.30;99.90;;;;;;5023010;28;20523;-44
2022/01/05 01:31:18;;;;;;;5.60;1.35;;;4.30;99.90;;;;;;5016554;28;20025;-33
2022/01/05 01:33:45;;;;;;;7.63;0.93;;;4.30;99.90;;;;;;5018982;28;20052;-36
2022/01/05 01:36:11;;;;;;;6.75;1.65;;;4.30;99.90;;;;;;5033760;28;20108;-35
2022/01/05 01:38:36;;;;;;;6.90;2.20;;;4.20;99.90;;;;;;5032621;28;20571;-34
2022/01/05 01:41:02;;;;;;;10.38;1.25;;;4.20;99.90;;;;;;5026594;28;20030;-40
2022/01/05 01:43:28;;;;;;;5.57;1.00;;;4.10;99.90;;;;;;5016013;28;20489;-38
2022/01/05 01:45:54;;;;;;;12.25;1.48;;;4.10;99.90;;;;;;5025835;28;20026;-36
2022/01/05 01:48:20;;;;;;;25.17;1.25;;;4.20;99.90;;;;;;5027715;28;20096;-32
2022/01/05 01:50:45;;;;;;;14.90;1.65;;;4.10;99.90;;;;;;5019676;28;20035;-34
2022/01/05 01:53:12;;;;;;;4.55;1.20;;;4.20;99.90;;;;;;5017818;28;20030;-32
2022/01/05 01:55:38;;;;;;;7.45;1.20;;;4.10;99.90;;;;;;5034747;28;20036;-35
2022/01/05 01:58:05;;;;;;;12.27;1.38;;;4.10;99.90;;;;;;5035651;28;20495;-33
2022/01/05 02:00:31;;;;;;;12.93;1.23;;;4.10;99.90;;;;;;5035050;28;20080;-33
2022/01/05 02:02:57;;;;;;;11.07;1.50;;;4.10;99.90;;;;;;5043028;28;20485;-33
2022/01/05 02:05:23;;;;;;;7.25;1.63;;;4.10;99.90;;;;;;5035324;28;20075;-34
2022/01/05 02:07:49;;;;;;;7.28;1.17;;;4.10;99.90;;;;;;5035937;28;20174;-31
2022/01/05 02:10:16;;;;;;;9.43;2.63;;;4.10;99.90;;;;;;5035871;28;20104;-33
2022/01/05 02:12:42;;;;;;;11.50;1.17;;;4.10;99.90;;;;;;5045014;28;20536;-31
2022/01/05 02:15:09;;;;;;;6.00;0.82;;;4.10;99.90;;;;;;5040793;28;20485;-44
2022/01/05 02:17:48;;;;;;;15.35;1.60;;;4.10;99.90;;;;;;5037469;28;20420;-35
2022/01/05 02:20:20;;;;;;;8.82;0.98;;;4.10;99.90;;;;;;5034881;28;20025;-46
2022/01/05 02:22:46;;;;;;;7.00;0.85;;;4.10;99.90;;;;;;5046725;28;20018;-34
2022/01/05 02:25:12;;;;;;;9.77;1.20;;;4.10;99.90;;;;;;5035547;28;20123;-32
2022/01/05 02:27:40;;;;;;;4.40;1.10;;;4.20;99.90;;;;;;5045449;28;20502;-33
2022/01/05 02:30:07;;;;;;;7.97;1.23;;;4.20;99.90;;;;;;5034639;28;20030;-38
2022/01/05 02:32:33;;;;;;;6.13;1.57;;;4.10;99.90;;;;;;5037774;28;20060;-38
2022/01/05 02:34:58;;;;;;;9.68;1.65;;;4.10;99.90;;;;;;5045080;28;20490;-38
2022/01/05 02:37:24;;;;;;;7.15;1.33;;;4.00;99.90;;;;;;5049133;28;20091;-39
2022/01/05 02:39:50;;;;;;;13.90;2.00;;;4.00;99.90;;;;;;5035131;28;20021;-35
2022/01/05 02:42:29;;;;;;;4.47;1.38;;;4.00;99.90;;;;;;5034330;28;20093;-34
2022/01/05 02:44:56;;;;;;;9.35;1.48;;;4.00;99.90;;;;;;5034262;28;20078;-32
2022/01/05 02:47:22;;;;;;;12.52;1.58;;;4.10;99.90;;;;;;5044922;28;20387;-33
2022/01/05 02:49:48;;;;;;;8.35;1.63;;;4.00;99.90;;;;;;5033618;28;20049;-33
2022/01/05 02:52:14;;;;;;;4.68;1.20;;;4.00;99.90;;;;;;5037368;28;20440;-32
2022/01/05 02:54:44;;;;;;;11.43;1.42;;;4.10;99.90;;;;;;5040922;28;20028;-34
2022/01/05 02:57:09;;;;;;;9.65;1.25;;;4.10;99.90;;;;;;5053228;28;20477;-40
2022/01/05 02:59:35;;;;;;;6.32;1.67;;;4.10;99.90;;;;;;5039210;28;20017;-32
2022/01/05 03:02:01;;;;;;;5.97;1.73;;;4.10;99.90;;;;;;5044061;28;20052;-39
2022/01/05 03:04:27;;;;;;;7.30;1.02;;;4.20;99.90;;;;;;5036473;28;20478;-35
2022/01/05 03:06:53;;;;;;;6.70;1.00;;;4.20;99.90;;;;;;5038795;28;20021;-40
2022/01/05 03:09:19;;;;;;;8.15;1.27;;;4.10;99.90;;;;;;5034783;28;20441;-36
2022/01/05 03:11:45;;;;;;;10.05;2.08;;;4.20;99.90;;;;;;5045738;28;20407;-38
2022/01/05 03:14:11;;;;;;;11.30;2.55;;;4.10;99.90;;;;;;5041872;28;20025;-39
2022/01/05 03:16:36;;;;;;;8.32;1.65;;;4.20;99.90;;;;;;5039811;28;20087;-33
2022/01/05 03:19:03;;;;;;;7.75;2.13;;;4.10;99.90;;;;;;5038309;28;20545;-35
2022/01/05 03:21:29;;;;;;;6.75;1.58;;;4.10;99.90;;;;;;5053711;28;20028;-38
2022/01/05 03:23:54;;;;;;;12.43;2.22;;;4.10;99.90;;;;;;5035296;28;20021;-37
2022/01/05 03:26:20;;;;;;;10.25;1.42;;;4.10;99.90;;;;;;5037171;28;20571;-39
2022/01/05 03:28:45;;;;;;;14.48;2.45;;;4.10;99.90;;;;;;5041858;28;20030;-33
2022/01/05 03:31:11;;;;;;;10.20;2.28;;;4.10;99.90;;;;;;5034089;28;20082;-35
2022/01/05 03:33:37;;;;;;;14.25;1.52;;;4.10;99.90;;;;;;5033623;28;20036;-34
2022/01/05 03:36:03;;;;;;;17.13;1.60;;;4.10;99.90;;;;;;5038045;28;20476;-33
2022/01/05 03:38:30;;;;;;;8.15;1.83;;;4.10;99.90;;;;;;5039954;28;20079;-33
2022/01/05 03:40:56;;;;;;;6.45;1.83;;;4.20;99.90;;;;;;5036371;28;20029;-31
2022/01/05 03:43:22;;;;;;;18.60;2.05;;;4.20;99.90;;;;;;5041210;28;20029;-34
2022/01/05 03:45:48;;;;;;;18.40;1.77;;;4.20;99.90;;;;;;5041803;28;20028;-31
2022/01/05 03:48:16;;;;;;;6.38;2.05;;;4.20;99.90;;;;;;5038318;28;20028;-33
2022/01/05 03:50:42;;;;;;;14.38;3.20;;;4.10;99.90;;;;;;5041025;28;20044;-38
2022/01/05 03:53:08;;;;;;;13.75;1.67;;;4.10;99.90;;;;;;5033357;28;20246;-34
2022/01/05 03:55:35;;;;;;;10.50;2.38;;;4.20;99.90;;;;;;5041786;28;20021;-32
2022/01/05 03:58:01;;;;;;;9.55;1.70;;;4.10;99.90;;;;;;5046199;28;20025;-35
2022/01/05 04:00:29;;;;;;;13.15;2.25;;;4.20;99.90;;;;;;5045596;28;20661;-36
2022/01/05 04:02:58;;;;;;;12.30;1.55;;;4.20;99.90;;;;;;5035851;28;20077;-33
2022/01/05 04:05:23;;;;;;;15.55;1.52;;;4.30;99.90;;;;;;5038443;28;20429;-38
2022/01/05 04:07:52;;;;;;;16.92;1.95;;;4.30;99.90;;;;;;5033815;28;21684;-32
2022/01/05 04:10:18;;;;;;;8.25;1.25;;;4.30;99.90;;;;;;5047786;28;20040;-32
2022/01/05 04:12:45;;;;;;;8.15;1.70;;;4.30;99.90;;;;;;5046594;28;20025;-38
2022/01/05 04:15:11;;;;;;;13.00;0.93;;;4.40;99.90;;;;;;5034443;28;20029;-36
2022/01/05 04:17:36;;;;;;;8.65;1.50;;;4.40;99.90;;;;;;5042895;28;20413;-30
2022/01/05 04:20:03;;;;;;;7.10;1.63;;;4.40;99.90;;;;;;5032722;28;20079;-34
2022/01/05 04:22:29;;;;;;;7.28;1.77;;;4.40;99.90;;;;;;5040426;28;20032;-34
2022/01/05 04:24:55;;;;;;;14.90;2.50;;;4.50;99.90;;;;;;5043436;28;20033;-31
2022/01/05 04:27:22;;;;;;;22.02;2.15;;;4.60;99.90;;;;;;5032666;28;20520;-34
2022/01/05 04:29:47;;;;;;;5.95;1.30;;;4.60;99.90;;;;;;5042782;28;20025;-37
2022/01/05 04:32:13;;;;;;;19.23;2.45;;;4.60;99.90;;;;;;5038019;28;20144;-32
2022/01/05 04:34:39;;;;;;;16.25;2.17;;;4.70;99.90;;;;;;5016672;28;20482;-34
2022/01/05 04:37:06;;;;;;;5.45;2.03;;;4.70;99.90;;;;;;5016006;28;20034;-43
2022/01/05 04:39:32;;;;;;;16.73;2.05;;;4.70;99.90;;;;;;5014523;28;20029;-37
2022/01/05 04:41:58;;;;;;;5.28;0.93;;;4.60;99.90;;;;;;5031680;28;20096;-37
2022/01/05 04:44:23;;;;;;;14.43;1.70;;;4.70;99.90;;;;;;5032506;28;20072;-33
2022/01/05 04:46:49;;;;;;;9.75;2.33;;;4.70;99.90;;;;;;5017432;28;20038;-31
2022/01/05 04:49:15;;;;;;;10.57;1.38;;;4.70;99.90;;;;;;5017223;28;20145;-39
2022/01/05 04:51:40;;;;;;;7.40;1.45;;;4.60;99.90;;;;;;5024009;28;20544;-34
2022/01/05 04:54:06;;;;;;;8.93;1.70;;;4.70;99.90;;;;;;5031655;28;20036;-34
2022/01/05 04:56:32;;;;;;;6.93;1.35;;;4.70;99.90;;;;;;5024670;28;20072;-35
2022/01/05 04:58:57;;;;;;;13.45;1.98;;;4.70;99.90;;;;;;5022215;28;20041;-34
2022/01/05 05:01:23;;;;;;;5.50;1.13;;;4.80;99.90;;;;;;5016697;28;20494;-36
2022/01/05 05:03:50;;;;;;;16.98;1.85;;;4.80;99.90;;;;;;5022631;28;20037;-33
2022/01/05 05:06:16;;;;;;;13.07;1.58;;;4.80;99.90;;;;;;5024576;28;20437;-34
2022/01/05 05:08:42;;;;;;;10.20;1.35;;;4.90;99.90;;;;;;5037794;28;20028;-37
2022/01/05 05:11:08;;;;;;;10.50;1.73;;;5.00;99.90;;;;;;5049773;28;20037;-32
2022/01/05 05:13:33;;;;;;;12.10;1.77;;;5.00;99.90;;;;;;5046213;28;20064;-35
2022/01/05 05:15:59;;;;;;;10.02;2.70;;;5.00;99.90;;;;;;5052155;28;20025;-35
2022/01/05 05:18:25;;;;;;;8.60;1.35;;;5.00;99.90;;;;;;5039548;28;20037;-35
2022/01/05 05:20:50;;;;;;;6.55;1.73;;;5.10;99.90;;;;;;5044043;28;20029;-33
2022/01/05 05:23:17;;;;;;;2.47;1.23;;;5.10;99.90;;;;;;5038625;28;20114;-34
2022/01/05 05:25:42;;;;;;;13.43;1.88;;;5.10;99.90;;;;;;5042359;28;20545;-35
2022/01/05 05:28:08;;;;;;;14.40;1.95;;;5.10;99.90;;;;;;5042149;28;20053;-32
2022/01/05 05:30:35;;;;;;;4.07;1.45;;;5.00;99.90;;;;;;5053558;28;20082;-33
2022/01/05 05:33:01;;;;;;;9.57;1.65;;;5.10;99.90;;;;;;5044981;28;20469;-56
2022/01/05 05:35:27;;;;;;;16.02;2.90;;;5.10;99.90;;;;;;5035642;28;20091;-33
2022/01/05 05:37:53;;;;;;;7.88;1.60;;;5.10;99.90;;;;;;5036376;28;20523;-34
2022/01/05 05:40:19;;;;;;;19.73;1.83;;;5.10;99.90;;;;;;5038603;28;20049;-35
2022/01/05 05:42:44;;;;;;;8.98;1.50;;;5.20;99.90;;;;;;5043145;28;20541;-38
2022/01/05 05:45:10;;;;;;;7.15;2.17;;;5.20;99.90;;;;;;5040399;28;20022;-30
2022/01/05 05:47:36;;;;;;;7.35;1.80;;;5.20;99.90;;;;;;5042404;28;20025;-35
2022/01/05 05:50:02;;;;;;;8.85;1.55;;;5.30;99.90;;;;;;5038232;28;20080;-40
2022/01/05 05:52:27;;;;;;;15.48;2.10;;;5.20;99.90;;;;;;5046329;28;20017;-33
2022/01/05 05:54:53;;;;;;;3.92;1.45;;;5.20;99.90;;;;;;5034357;28;20429;-34
2022/01/05 05:57:19;;;;;;;8.75;1.48;;;5.10;99.90;;;;;;5034977;28;20033;-31
2022/01/05 05:59:44;;;;;;;17.17;1.85;;;5.20;99.90;;;;;;5036006;28;20033;-36
2022/01/05 06:02:10;;;;;;;17.00;2.97;;;5.20;99.90;;;;;;5041951;28;20124;-37
2022/01/05 06:04:35;;;;;;;6.90;2.05;;;5.20;99.90;;;;;;5044652;28;20377;-37
2022/01/05 06:07:01;;;;;;;12.38;2.10;;;5.20;99.90;;;;;;5048417;28;20029;-34
2022/01/05 06:09:27;;;;;;;15.65;1.90;;;5.20;99.90;;;;;;5044845;28;20534;-32
2022/01/05 06:11:52;;;;;;;10.23;2.17;;;5.30;99.90;;;;;;5036757;28;20026;-35
2022/01/05 06:14:18;;;;;;;12.48;2.42;;;5.30;99.90;;;;;;5036464;28;20021;-36
2022/01/05 06:16:43;;;;;;;13.77;1.50;;;5.30;99.90;;;;;;5046589;28;20029;-39
2022/01/05 06:19:10;;;;;;;9.48;1.60;;;5.20;99.90;;;;;;5048035;28;20030;-34
2022/01/05 06:21:35;;;;;;;13.95;1.98;;;5.20;99.90;;;;;;5048414;28;20468;-33
2022/01/05 06:24:01;;;;;;;5.28;1.50;;;5.20;99.90;;;;;;5043294;28;20032;-34
2022/01/05 06:26:27;;;;;;;8.77;2.50;;;5.20;99.90;;;;;;5051773;28;20388;-36
2022/01/05 06:28:53;;;;;;;14.43;2.30;;;5.20;99.90;;;;;;5052004;28;20078;-34
2022/01/05 06:31:18;;;;;;;14.82;2.83;;;5.30;99.90;;;;;;5045604;28;20033;-33
2022/01/05 06:33:44;;;;;;;16.17;2.40;;;5.20;99.90;;;;;;5042700;28;20032;-32
2022/01/05 06:36:10;;;;;;;15.68;2.35;;;5.20;99.90;;;;;;5024597;28;20550;-34
2022/01/05 06:38:35;;;;;;;17.13;1.50;;;5.20;99.90;;;;;;5035254;28;20025;-38
2022/01/05 06:41:01;;;;;;;8.05;1.15;;;5.20;99.90;;;;;;5035388;28;20028;-33
2022/01/05 06:43:27;;;;;;;9.27;2.63;;;5.30;99.90;;;;;;5046423;28;20018;-36
2022/01/05 06:45:52;;;;;;;24.17;2.33;;;5.30;99.90;;;;;;5047925;28;20112;-33
2022/01/05 06:48:18;;;;;;;8.65;1.40;;;5.30;99.90;;;;;;5045917;28;20021;-33
2022/01/05 06:50:44;;;;;;;15.52;1.67;;;5.20;99.90;;;;;;5042415;28;20032;-32
2022/01/05 06:53:09;;;;;;;16.67;2.20;;;5.20;99.90;;;;;;5041317;28;20036;-33
2022/01/05 06:55:35;;;;;;;14.27;1.77;;;5.20;99.90;;;;;;5044840;28;20030;-34
2022/01/05 06:58:01;;;;;;;23.23;1.85;;;5.20;99.90;;;;;;5035912;28;20057;-38
2022/01/05 07:00:27;;;;;;;17.20;2.55;;;5.20;99.90;;;;;;5045097;28;20548;-46
2022/01/05 07:02:53;;;;;;;13.50;2.38;;;5.30;99.90;;;;;;5045432;28;20029;-36
2022/01/05 07:05:19;;;;;;;13.25;1.50;;;5.30;99.90;;;;;;5048405;28;20079;-31
2022/01/05 07:07:45;;;;;;;14.77;2.75;;;5.30;99.90;;;;;;5036289;28;20023;-37
2022/01/05 07:10:11;;;;;;;19.63;2.15;;;5.40;99.90;;;;;;5043095;28;20021;-36
2022/01/05 07:12:38;;;;;;;13.27;1.60;;;5.40;99.90;;;;;;5046057;28;20021;-37
2022/01/05 07:15:05;;;;;;;10.10;2.55;;;5.40;99.90;;;;;;5044394;28;20029;-31
2022/01/05 07:17:31;;;;;;;12.75;2.25;;;5.40;99.90;;;;;;5043169;28;20083;-31
2022/01/05 07:19:57;;;;;;;18.35;1.95;;;5.40;99.90;;;;;;5044503;28;20028;-34
2022/01/05 07:22:22;;;;;;;11.82;1.98;;;5.40;99.90;;;;;;5035532;28;20037;-36
2022/01/05 07:24:48;;;;;;;14.10;1.92;;;5.50;99.90;;;;;;5033470;28;20026;-31
2022/01/05 07:27:14;;;;;;;21.20;1.98;;;5.50;99.90;;;;;;5032876;28;20477;-33
2022/01/05 07:29:39;;;;;;;14.20;2.08;;;5.50;99.90;;;;;;5033591;28;20453;-33
2022/01/05 07:32:05;;;;;;;9.10;1.48;;;5.50;99.90;;;;;;5048440;28;20111;-31
2022/01/05 07:34:31;;;;;;;14.65;2.38;;;5.40;99.90;;;;;;5031968;28;20031;-31
2022/01/05 07:36:57;;;;;;;14.82;2.63;;;5.50;99.90;;;;;;5033545;28;20544;-34
2022/01/05 07:39:22;;;;;;;15.40;2.10;;;5.40;99.90;;;;;;5022844;28;20121;-47
2022/01/05 07:41:48;;;;;;;18.30;3.88;;;5.30;99.90;;;;;;5014715;28;20025;-35
2022/01/05 07:44:14;;;;;;;16.00;2.83;;;5.30;99.90;;;;;;5014037;28;20466;-33
2022/01/05 07:46:39;;;;;;;23.17;2.00;;;5.30;99.90;;;;;;5016144;28;20027;-34
2022/01/05 07:49:06;;;;;;;10.55;1.60;;;5.20;99.90;;;;;;5025849;28;20447;-31
2022/01/05 07:51:32;;;;;;;20.38;4.15;;;5.20;99.90;;;;;;5028891;28;20034;-33
2022/01/05 07:53:58;;;;;;;14.07;2.28;;;5.20;99.90;;;;;;5020011;28;20064;-37
2022/01/05 07:56:24;;;;;;;22.15;2.20;;;5.10;99.90;;;;;;5014162;28;20029;-38
2022/01/05 07:58:50;;;;;;;13.05;1.77;;;5.10;99.90;;;;;;5015870;28;20030;-37
2022/01/05 08:01:18;;;;;;;13.32;2.70;;;5.10;99.90;;;;;;5014106;28;20041;-35
2022/01/05 08:03:45;;;;;;;17.17;2.20;;;5.10;99.90;;;;;;5013522;28;20050;-34
2022/01/05 08:06:10;;;;;;;21.20;3.78;;;5.10;99.90;;;;;;5031861;28;20481;-35
2022/01/05 08:08:36;;;;;;;19.33;1.52;;;5.10;99.90;;;;;;5029667;28;20164;-35
2022/01/05 08:11:02;;;;;;;10.15;1.77;;;5.20;99.90;;;;;;5020575;28;20041;-41
2022/01/05 08:13:27;;;;;;;11.82;1.83;;;5.20;99.90;;;;;;5015248;28;20041;-35
2022/01/05 08:15:54;;;;;;;12.27;2.05;;;5.10;99.90;;;;;;5013974;28;20421;-38
2022/01/05 08:18:21;;;;;;;15.30;1.90;;;5.20;99.90;;;;;;5012916;28;20030;-36
2022/01/05 08:20:47;;;;;;;16.17;2.42;;;5.10;99.90;;;;;;5025314;28;20053;-33
2022/01/05 08:23:20;;;;;;;17.02;2.45;;;5.10;99.90;;;;;;5024257;28;20061;-36
2022/01/05 08:25:47;;;;;;;10.18;1.70;;;5.10;99.90;;;;;;5027364;28;20486;-36
2022/01/05 08:28:14;;;;;;;7.15;1.40;;;5.10;99.90;;;;;;5024827;28;20057;-32
2022/01/05 08:30:40;;;;;;;14.27;1.63;;;5.00;99.90;;;;;;5031019;28;20034;-31
2022/01/05 08:33:07;;;;;;;17.85;1.52;;;5.00;99.90;;;;;;5024394;28;20075;-33
2022/01/05 08:35:33;;;;;;;12.95;1.77;;;5.00;99.90;;;;;;5029445;28;20385;-39
2022/01/05 08:38:00;;;;;;;14.10;1.77;;;5.00;99.90;;;;;;5023991;28;20083;-35
2022/01/05 08:40:26;;;;;;;13.90;1.52;;;4.90;99.90;;;;;;5028261;28;20425;-37
2022/01/05 08:42:53;;;;;;;6.28;2.15;;;5.00;99.90;;;;;;5029663;28;20541;-43
2022/01/05 08:45:19;;;;;;;15.35;1.98;;;5.00;99.90;;;;;;5031290;28;20551;-37
2022/01/05 08:47:48;;;;;;;14.15;2.17;;;5.00;99.90;;;;;;5030232;28;20025;-35
2022/01/05 08:50:20;;;;;;;29.88;1.65;;;5.00;99.90;;;;;;5029606;28;20071;-37
2022/01/05 08:52:47;;;;;;;21.50;3.10;;;5.10;99.90;;;;;;5031914;28;20045;-38
2022/01/05 08:55:14;;;;;;;19.73;3.08;;;5.10;99.90;;;;;;5030058;28;20083;-33
2022/01/05 08:57:42;;;;;;;20.77;2.72;;;5.20;99.90;;;;;;5030840;28;20030;-38
2022/01/05 09:00:09;;;;;;;17.83;2.40;;;5.20;99.90;;;;;;5031553;28;20021;-42
2022/01/05 09:02:34;;;;;;;8.32;2.03;;;5.20;99.90;;;;;;5026604;28;20114;-35
2022/01/05 09:05:01;;;;;;;16.27;2.85;;;5.20;99.90;;;;;;5036009;28;20072;-33
2022/01/05 09:07:26;;;;;;;18.65;5.30;;;5.30;99.90;;;;;;5031413;28;20022;-35
2022/01/05 09:09:52;;;;;;;21.13;3.22;;;5.30;99.90;;;;;;5031651;28;20048;-34
2022/01/05 09:12:17;;;;;;;20.90;2.65;;;5.20;99.90;;;;;;5022937;28;20486;-33
2022/01/05 09:14:43;;;;;;;13.40;2.28;;;5.30;99.90;;;;;;5025462;28;20044;-37
2022/01/05 09:17:09;;;;;;;11.50;2.05;;;5.30;99.90;;;;;;5027063;28;20030;-39
2022/01/05 09:19:35;;;;;;;21.73;2.90;;;5.30;99.90;;;;;;5029188;28;20033;-31
2022/01/05 09:22:02;;;;;;;20.48;3.63;;;5.30;99.90;;;;;;5031303;28;20058;-34
2022/01/05 09:24:28;;;;;;;20.05;2.67;;;5.30;99.90;;;;;;5031566;28;20025;-42
2022/01/05 09:26:56;;;;;;;27.05;3.05;;;5.40;99.90;;;;;;5024534;28;20025;-37
2022/01/05 09:29:23;;;;;;;21.33;2.55;;;5.40;99.90;;;;;;5026437;28;20470;-37
2022/01/05 09:31:49;;;;;;;23.98;2.83;;;5.40;99.90;;;;;;5028469;28;20124;-41
2022/01/05 09:34:15;;;;;;;23.80;2.25;;;5.50;99.90;;;;;;5033153;28;20104;-37
2022/01/05 09:36:45;;;;;;;20.50;2.63;;;5.50;99.90;;;;;;5027679;28;20031;-32
2022/01/05 09:42:05;;;;;;;21.30;3.33;;;5.70;99.90;;;;;;5023740;28;20516;-37
2022/01/05 09:44:33;;;;;;;16.25;2.42;;;5.70;99.90;;;;;;5029559;28;20033;-36
2022/01/05 09:47:20;;;;;;;26.10;2.55;;;5.70;99.90;;;;;;5023519;28;20372;-35
2022/01/05 09:49:59;;;;;;;34.38;3.38;;;5.80;99.90;;;;;;5023957;28;20441;-35
2022/01/05 09:52:25;;;;;;;17.38;3.65;;;5.70;99.90;;;;;;5024958;28;20037;-36
2022/01/05 09:54:52;;;;;;;16.75;2.05;;;5.70;99.90;;;;;;5023880;28;20083;-36
2022/01/05 09:57:19;;;;;;;11.77;1.95;;;5.80;99.90;;;;;;5025291;28;20036;-38
2022/01/05 09:59:46;;;;;;;20.52;2.80;;;5.80;99.90;;;;;;5025511;28;20029;-35
2022/01/05 10:02:14;;;;;;;16.10;3.13;;;5.80;99.90;;;;;;5023619;28;20402;-35
2022/01/05 10:04:40;;;;;;;27.92;2.83;;;5.80;99.90;;;;;;5026823;28;20021;-31
2022/01/05 10:07:08;;;;;;;24.60;2.90;;;5.90;99.90;;;;;;5034189;28;20029;-34
2022/01/05 10:09:36;;;;;;;15.27;2.15;;;5.90;99.90;;;;;;5020276;28;20437;-34
2022/01/05 10:12:03;;;;;;;14.65;2.78;;;5.90;99.90;;;;;;5023454;28;20562;-34
2022/01/05 10:14:30;;;;;;;16.75;2.35;;;5.90;99.90;;;;;;5034312;28;20056;-31
2022/01/05 10:17:03;;;;;;;29.92;3.88;;;6.00;99.90;;;;;;5034759;28;20539;-38
2022/01/05 10:19:29;;;;;;;24.15;2.42;;;6.00;99.90;;;;;;5028348;28;20037;-31
2022/01/05 10:21:56;;;;;;;18.95;2.45;;;6.00;99.90;;;;;;5019997;28;20476;-32
2022/01/05 10:24:44;;;;;;;16.40;2.03;;;6.10;99.90;;;;;;5025950;28;20032;-37
2022/01/05 10:27:18;;;;;;;;;;;6.10;99.90;;;;;;5025966;28;20108;-33
2022/01/05 10:30:00;;;;;;;19.83;2.67;;;6.10;99.90;;;;;;5034586;28;19971;-31
2022/01/05 10:32:32;;;;;;;18.15;2.08;;;6.10;99.90;;;;;;5033252;28;20494;-33
2022/01/05 10:35:02;;;;;;;13.68;2.10;;;6.10;99.90;;;;;;5032270;28;20030;-32
2022/01/05 10:37:27;;;;;;;32.50;4.30;;;6.10;99.90;;;;;;5016968;28;20032;-35
2022/01/05 10:40:35;;;;;;;16.15;2.28;;;6.10;99.90;;;;;;5033685;28;20108;-33
2022/01/05 10:43:10;;;;;;;12.25;2.00;;;6.20;99.90;;;;;;4973610;28;20031;-32
2022/01/05 10:45:38;;;;;;;25.35;3.28;;;6.20;99.90;;;;;;4976920;28;20041;-29
2022/01/05 10:48:10;;;;;;;21.40;2.95;;;6.20;99.90;;;;;;5015223;28;20041;-34
2022/01/05 10:50:36;;;;;;;24.77;2.40;;;6.20;99.90;;;;;;5032841;28;20044;-36
2022/01/05 10:53:03;;;;;;;15.93;3.00;;;6.10;99.90;;;;;;5032001;28;20052;-33
2022/01/05 10:55:31;;;;;;;25.73;2.20;;;6.10;99.90;;;;;;5032011;28;20060;-36
2022/01/05 10:57:58;;;;;;;16.90;2.10;;;6.10;99.90;;;;;;5033758;28;20032;-33
2022/01/05 11:00:35;;;;;;;12.02;2.40;;;6.10;99.90;;;;;;5032515;28;20023;-30
2022/01/05 11:03:01;;;;;;;8.75;1.98;;;6.10;99.90;;;;;;5031472;28;20041;-33
2022/01/05 11:05:27;;;;;;;15.63;2.15;;;6.20;99.90;;;;;;5030537;28;20105;-35
2022/01/05 11:08:06;;;;;;;7.30;2.10;;;6.20;99.90;;;;;;5014536;28;20029;-33
2022/01/05 11:10:32;;;;;;;17.67;2.30;;;6.20;99.90;;;;;;5014439;28;20497;-34
2022/01/05 11:12:58;;;;;;;23.23;3.20;;;6.20;99.90;;;;;;5027713;28;20021;-32
2022/01/05 11:15:28;;;;;;;15.23;2.30;;;6.20;99.90;;;;;;5020497;28;20093;-36
2022/01/05 11:18:09;;;;;;;17.88;2.03;;;6.20;99.90;;;;;;5019363;28;20485;-32
2022/01/05 11:20:47;;;;;;;28.92;2.65;;;6.20;99.90;;;;;;5024540;28;20030;-38
2022/01/05 11:23:14;;;;;;;18.67;3.40;;;6.20;99.90;;;;;;5023150;28;20551;-36
2022/01/05 11:25:42;;;;;;;16.17;2.42;;;6.10;99.90;;;;;;5030261;28;20033;-31
2022/01/05 11:28:08;;;;;;;19.13;2.60;;;6.10;99.90;;;;;;5032217;28;20030;-32
2022/01/05 11:30:35;;;;;;;19.08;2.60;;;6.10;99.90;;;;;;5018572;28;20112;-33
2022/01/05 11:33:00;;;;;;;9.95;1.55;;;6.10;99.90;;;;;;5013666;28;20053;-40
2022/01/05 11:35:27;;;;;;;20.15;1.88;;;6.10;99.90;;;;;;5013665;28;20069;-34
2022/01/05 11:37:52;;;;;;;12.68;2.25;;;6.10;99.90;;;;;;5019619;28;20473;-51
2022/01/05 11:40:18;;;;;;;14.55;1.65;;;6.10;99.90;;;;;;5021517;28;20041;-31
2022/01/05 11:42:48;;;;;;;24.75;3.28;;;6.10;99.90;;;;;;5014737;28;20470;-31
2022/01/05 11:45:31;;;;;;;13.07;2.28;;;6.10;99.90;;;;;;5027227;28;20028;-34
2022/01/05 11:48:20;;;;;;;19.38;2.58;;;6.20;99.90;;;;;;5028619;28;20104;-37
2022/01/05 11:50:57;;;;;;;7.07;1.52;;;6.30;99.90;;;;;;5029893;28;20485;-33
2022/01/05 11:53:35;;;;;;;16.98;2.35;;;6.40;99.90;;;;;;5033051;28;20025;-29
2022/01/05 11:56:04;;;;;;;15.10;1.95;;;6.40;99.90;;;;;;5033040;28;20425;-30
2022/01/05 11:58:32;;;;;;;10.23;2.08;;;6.40;99.90;;;;;;5032932;28;20018;-35
2022/01/05 12:01:12;;;;;;;;;;;6.50;99.90;;;;;;5032899;28;20061;-36
2022/01/05 12:03:50;;;;;;;32.95;2.05;;;6.50;99.90;;;;;;5032891;28;19916;-34
2022/01/05 12:06:17;;;;;;;16.77;2.45;;;6.50;99.90;;;;;;5013757;28;20516;-32
2022/01/05 12:08:44;;;;;;;15.88;2.65;;;6.60;99.90;;;;;;5013228;28;20470;-35
2022/01/05 12:11:38;;;;;;;12.95;1.67;;;6.60;99.90;;;;;;5013112;28;20030;-33
2022/01/05 12:14:06;;;;;;;18.42;1.90;;;6.60;99.90;;;;;;5013310;28;20473;-31
2022/01/05 12:17:05;;;;;;;10.95;1.63;;;6.60;99.90;;;;;;5013052;28;20406;-32
2022/01/05 12:19:55;;;;;;;32.25;2.92;;;6.70;99.90;;;;;;5012711;28;20041;-32
2022/01/05 12:22:30;;;;;;;26.30;3.45;;;6.60;99.90;;;;;;5012890;28;20375;-35
2022/01/05 12:25:00;;;;;;;16.20;2.20;;;6.60;99.90;;;;;;5011544;28;20045;-30
2022/01/05 12:27:33;;;;;;;19.85;1.88;;;6.50;99.90;;;;;;5012793;28;20123;-32
2022/01/05 12:30:17;;;;;;;37.72;3.17;;;6.60;99.90;;;;;;5013212;28;20473;-32
2022/01/05 12:32:44;;;;;;;21.40;2.83;;;6.60;99.90;;;;;;5013098;28;20112;-32
2022/01/05 12:35:17;;;;;;;21.98;2.60;;;6.60;99.90;;;;;;5013130;28;20022;-33
2022/01/05 12:38:06;;;;;;;29.33;2.65;;;6.80;99.90;;;;;;5012754;28;20493;-33
2022/01/05 12:40:39;;;;;;;14.70;2.17;;;6.80;99.90;;;;;;5013073;28;20026;-38
2022/01/05 12:43:11;;;;;;;27.40;3.60;;;7.00;99.90;;;;;;5012959;28;20465;-35
2022/01/05 12:45:52;;;;;;;15.75;2.80;;;7.00;99.90;;;;;;5013040;28;20030;-35
2022/01/05 12:48:53;;;;;;;21.83;2.97;;;7.00;99.90;;;;;;5011476;28;20033;-33
2022/01/05 12:51:39;;;;;;;10.30;1.52;;;7.00;99.90;;;;;;5012684;28;20030;-33
2022/01/05 12:54:41;;;;;;;8.90;1.67;;;7.10;99.90;;;;;;5013005;28;20466;-32
2022/01/05 12:57:11;;;;;;;12.05;2.47;;;7.10;99.90;;;;;;5012586;28;20026;-34